首页
METAR-TAF:

METAR-TAF

机场 :

普爾科沃機場

圣彼得堡, 俄罗斯

纬度: 59-58N, 经度: 030-18E, 海拔: 4米

当前天气观测

该预报发布于38分钟前的11:30 UTC
风速6节,风向南转南东,在东转东南南转西南之间变化
温度 -6°C
湿度 93%
气压 1030 hPa
能見度: 8000
多云层高于700英尺
多云层高于2600英尺
小雪

METAR: ULLI 181130Z 15003MPS 110V210 8000 -SN BKN007 BKN026 M06/M07 Q1030 R88/520345 NOSIG

时间: 15:08 (12:08 UTC)

预报

该预报发布于1小时和8分钟前的11:00 UTC
预报有效从18日的 12点(UTC)到 19日的 12点(UTC)
风速6节,风向南转南东
能見度: 5000
多云层高于700英尺
阴天层高于1500英尺
小雪, 轻雾
短暂存在
从 18日的 12点(UTC)到 18日的 18点(UTC)
能見度: 3100
多云层高于600英尺
多云层高于1500英尺, 积雨云.
小阵雪, 轻雾
短暂存在
从 18日的 18点(UTC)到 18日的 24点(UTC)
能見度: 3100
多云层高于500英尺
阴天层高于1100英尺
小雪, 轻雾
短暂存在
从 19日的 00点(UTC)到 19日的 07点(UTC)
能見度: 3100
多云层高于400英尺
阴天层高于1100英尺
小雪, 轻雾

TAF: ULLI 181100Z 1812/1912 15003MPS 5000 -SN BR BKN007 OVC015 TEMPO 1812/1818 3100 -SHSN BR BKN006 BKN015CB TEMPO 1818/1824 3100 -SN BR BKN005 OVC011 TEMPO 1900/1907 3100 -SN BR BKN004 OVC011

超过4000个机场的气象观测和天气预报(METAR&TAF报告)。

可查询的气象台以黄色和红色小点在地图上表示。

将鼠标移到小点上方,可查看气象台名称。

然后点击查看天气观测和预报。

如需切换地图:点击带黑十字的绿色按钮放大地图;点击带横线的绿色按钮缩小地图;或者点击绿色箭头查看邻近地区的地图。


METAR-TAF: